Time;durP1;ratioP1;P1;durP2;ratioP2;P2;SDS_P1;SDS_P2;PMS_P1;PMS_P2;Temp;Humidity;BMP_temperature;BMP_pressure;BME280_temperature;BME280_humidity;BME280_pressure;Samples;Min_cycle;Max_cycle;Signal;HPM_P1;HPM_P2
2023/08/10 07:08:31;;;;;;;4.68;3.45;;;;;;;15.87;89.65;97096.97;2083805;28;20575;-65
2023/08/10 07:09:32;;;;;;;6.43;3.95;;;;;;;16.31;88.45;97100.50;2079794;28;20189;-65
2023/08/10 07:10:37;;;;;;;5.57;3.60;;;;;;;16.49;88.01;97093.25;2078642;28;20299;-66
2023/08/10 07:11:39;;;;;;;9.80;3.72;;;;;;;16.59;88.43;97091.75;2082061;28;20283;-65
2023/08/10 07:12:42;;;;;;;5.88;3.38;;;;;;;16.70;87.69;97106.91;2081848;28;20193;-65
2023/08/10 07:13:44;;;;;;;8.95;3.92;;;;;;;16.73;87.07;97104.06;2074974;28;20209;-65
2023/08/10 07:14:46;;;;;;;7.05;3.65;;;;;;;16.84;87.23;97098.16;2076337;28;20201;-65
2023/08/10 07:15:48;;;;;;;6.88;3.35;;;;;;;17.13;85.79;97112.16;2079176;28;20205;-65
2023/08/10 07:16:49;;;;;;;5.68;2.45;;;;;;;17.22;83.61;97108.09;2076695;28;20285;-66
2023/08/10 07:17:51;;;;;;;3.58;2.35;;;;;;;17.13;83.28;97109.50;2075959;28;20272;-65
2023/08/10 07:18:52;;;;;;;4.55;2.85;;;;;;;17.08;82.43;97110.78;2069823;28;20669;-65
2023/08/10 07:19:54;;;;;;;4.97;2.30;;;;;;;17.06;81.47;97110.84;2069648;28;20198;-65
2023/08/10 07:20:56;;;;;;;3.80;2.67;;;;;;;17.17;82.39;97111.97;2077081;28;20197;-66
2023/08/10 07:21:57;;;;;;;6.95;3.25;;;;;;;17.32;81.33;97123.31;2074668;28;20251;-66
2023/08/10 07:22:59;;;;;;;3.70;2.10;;;;;;;17.53;79.96;97118.44;2075637;28;20298;-66
2023/08/10 07:24:00;;;;;;;5.28;3.30;;;;;;;18.08;81.02;97127.16;2080238;28;20200;-66
2023/08/10 07:25:05;;;;;;;3.92;2.65;;;;;;;18.23;78.30;97125.28;2079505;28;20744;-65
2023/08/10 07:26:07;;;;;;;6.22;2.58;;;;;;;18.29;77.87;97116.94;2080746;28;20213;-66
2023/08/10 07:27:08;;;;;;;9.73;2.65;;;;;;;18.39;77.45;97120.63;2081683;28;20263;-66
2023/08/10 07:28:10;;;;;;;5.40;2.30;;;;;;;18.41;77.01;97110.81;2081940;28;20303;-65
2023/08/10 07:29:12;;;;;;;4.43;2.05;;;;;;;17.90;77.82;97124.78;2080479;28;20202;-66
2023/08/10 07:30:14;;;;;;;5.82;2.05;;;;;;;18.29;79.56;97106.34;2076149;28;20312;-65
2023/08/10 07:31:15;;;;;;;4.13;2.40;;;;;;;18.46;78.42;97112.28;2077202;28;20212;-65
2023/08/10 07:32:20;;;;;;;4.43;2.42;;;;;;;18.51;77.64;97118.97;2080391;28;20288;-65
2023/08/10 07:33:21;;;;;;;5.22;2.30;;;;;;;18.51;76.97;97121.59;2080163;28;20229;-66
2023/08/10 07:34:22;;;;;;;3.17;1.85;;;;;;;18.10;78.71;97117.34;2078733;28;20201;-65
2023/08/10 07:35:24;;;;;;;4.30;2.47;;;;;;;17.93;78.75;97111.41;2081259;28;20240;-66
2023/08/10 07:36:26;;;;;;;6.97;2.40;;;;;;;18.14;79.07;97116.19;2078757;28;20246;-66
2023/08/10 07:37:27;;;;;;;4.20;2.63;;;;;;;18.56;78.31;97115.97;2077332;28;20200;-68
2023/08/10 07:38:29;;;;;;;3.88;2.50;;;;;;;18.55;78.00;97109.84;2077826;28;20193;-67
2023/08/10 07:39:31;;;;;;;5.50;2.80;;;;;;;18.41;78.02;97108.16;2077854;28;20194;-67
2023/08/10 07:40:32;;;;;;;6.28;2.08;;;;;;;18.32;80.05;97116.75;2078138;28;20267;-67
2023/08/10 07:41:33;;;;;;;5.95;2.40;;;;;;;18.35;79.69;97108.59;2078524;28;20190;-67
2023/08/10 07:42:35;;;;;;;5.70;2.33;;;;;;;18.22;80.31;97113.00;2082368;28;20824;-67
2023/08/10 07:43:36;;;;;;;4.32;2.65;;;;;;;18.19;80.79;97115.88;2080395;28;20207;-67
2023/08/10 07:44:38;;;;;;;7.80;2.78;;;;;;;18.27;79.33;97117.03;2082248;28;20197;-68
2023/08/10 07:45:39;;;;;;;4.05;2.65;;;;;;;18.25;79.27;97116.28;2083950;28;20200;-67
2023/08/10 07:46:41;;;;;;;3.20;2.33;;;;;;;18.39;78.83;97118.00;2082756;28;20284;-67
2023/08/10 07:47:42;;;;;;;4.72;1.92;;;;;;;18.34;78.71;97113.97;2080374;28;20189;-67
2023/08/10 07:48:45;;;;;;;11.18;2.45;;;;;;;18.50;78.51;97116.41;2078620;28;20224;-67
2023/08/10 07:49:47;;;;;;;3.72;2.10;;;;;;;18.36;78.55;97114.69;2075989;28;20659;-67
2023/08/10 07:50:49;;;;;;;4.90;2.55;;;;;;;18.21;79.79;97122.75;2077326;28;20201;-67
2023/08/10 07:51:50;;;;;;;4.45;2.53;;;;;;;18.66;78.64;97118.84;2080013;28;20193;-67
2023/08/10 07:52:52;;;;;;;7.75;2.40;;;;;;;18.88;78.41;97120.78;2080829;28;20209;-67
2023/08/10 07:53:54;;;;;;;6.20;2.40;;;;;;;18.98;78.02;97128.97;2079762;28;20647;-67
2023/08/10 07:54:55;;;;;;;4.10;2.85;;;;;;;18.62;78.48;97126.13;2078640;28;20223;-67
2023/08/10 07:55:56;;;;;;;9.23;2.65;;;;;;;18.81;79.23;97125.69;2081536;28;20296;-68
2023/08/10 07:56:58;;;;;;;5.75;2.30;;;;;;;19.03;78.58;97129.47;2078786;28;20201;-67
2023/08/10 07:57:59;;;;;;;4.07;2.15;;;;;;;18.96;78.44;97117.63;2079231;28;20201;-67
2023/08/10 07:59:01;;;;;;;3.70;2.50;;;;;;;18.51;79.83;97124.25;2080721;28;20221;-68
2023/08/10 08:00:05;;;;;;;3.15;2.03;;;;;;;18.79;78.23;97117.00;2078208;28;20224;-68
2023/08/10 08:01:07;;;;;;;6.63;2.10;;;;;;;18.93;79.38;97124.00;2078471;28;20260;-67
2023/08/10 08:02:09;;;;;;;3.92;2.97;;;;;;;18.99;77.42;97123.56;2079469;28;20204;-67
2023/08/10 08:03:11;;;;;;;5.95;2.65;;;;;;;18.86;78.04;97117.44;2079203;28;20384;-68
2023/08/10 08:04:13;;;;;;;5.55;2.70;;;;;;;19.14;78.26;97111.03;2081491;28;20201;-68
2023/08/10 08:05:16;;;;;;;3.45;2.33;;;;;;;19.30;78.60;97110.78;2080695;28;20217;-68
2023/08/10 08:06:17;;;;;;;6.28;2.45;;;;;;;19.73;77.60;97117.34;2081121;28;20674;-68
2023/08/10 08:07:19;;;;;;;3.78;2.40;;;;;;;19.87;76.89;97119.00;2079660;28;20196;-67
2023/08/10 08:08:20;;;;;;;5.28;2.65;;;;;;;19.70;76.70;97118.41;2078028;28;20236;-67
2023/08/10 08:09:22;;;;;;;5.88;2.30;;;;;;;19.89;75.42;97117.91;2079317;28;20201;-68
2023/08/10 08:10:24;;;;;;;3.58;2.25;;;;;;;20.01;74.85;97123.25;2080416;28;20266;-68
2023/08/10 08:11:25;;;;;;;8.32;2.60;;;;;;;20.25;74.03;97123.19;2079074;28;20194;-67
2023/08/10 08:12:27;;;;;;;6.80;2.00;;;;;;;20.39;73.56;97123.00;2078895;28;20667;-67
2023/08/10 08:13:29;;;;;;;4.60;2.97;;;;;;;20.09;74.53;97133.28;2077358;28;20201;-68
2023/08/10 08:14:30;;;;;;;10.45;2.70;;;;;;;19.69;76.40;97124.69;2080060;28;20205;-67
2023/08/10 08:15:34;;;;;;;12.95;2.58;;;;;;;19.71;77.60;97122.78;2077872;28;20674;-68
2023/08/10 08:16:35;;;;;;;3.90;2.28;;;;;;;19.53;77.31;97130.28;2076090;28;20204;-67
2023/08/10 08:18:14;;;;;;;4.50;2.70;;;;;;;19.94;74.87;97130.00;2075132;28;20193;-68
2023/08/10 08:19:17;;;;;;;9.77;3.08;;;;;;;19.96;76.48;97128.06;2075951;28;20281;-68
2023/08/10 08:20:19;;;;;;;5.10;2.60;;;;;;;19.92;76.48;97131.91;2071244;28;20226;-68
2023/08/10 08:21:23;;;;;;;8.13;2.75;;;;;;;20.41;73.92;97117.56;2072167;28;20258;-68
2023/08/10 08:22:24;;;;;;;7.22;3.20;;;;;;;20.26;75.43;97124.91;2074730;28;20193;-68
2023/08/10 08:23:26;;;;;;;4.40;2.88;;;;;;;20.41;73.99;97119.41;2073223;28;20906;-68
2023/08/10 08:24:27;;;;;;;6.25;2.58;;;;;;;20.76;74.45;97116.69;2077841;28;20287;-68
2023/08/10 08:25:29;;;;;;;3.53;2.15;;;;;;;20.82;74.27;97110.88;2076680;28;20711;-68
2023/08/10 08:26:32;;;;;;;6.45;2.55;;;;;;;21.09;73.30;97116.75;2076423;28;20292;-68
2023/08/10 08:27:35;;;;;;;6.75;3.10;;;;;;;21.35;72.36;97119.97;2082995;28;20687;-66
2023/08/10 08:28:37;;;;;;;6.95;2.42;;;;;;;20.74;72.96;97112.47;2082229;28;20230;-66
2023/08/10 08:29:38;;;;;;;9.57;2.53;;;;;;;20.88;74.45;97093.63;2076393;28;20343;-66
2023/08/10 08:30:40;;;;;;;11.05;2.60;;;;;;;20.89;73.47;97116.53;2072512;28;20194;-66
2023/08/10 08:31:41;;;;;;;7.70;3.13;;;;;;;21.15;74.21;97113.63;2072796;28;20205;-67
2023/08/10 08:32:43;;;;;;;4.35;2.47;;;;;;;21.14;72.90;97110.13;2073581;28;20197;-70
2023/08/10 08:33:50;;;;;;;6.20;2.35;;;;;;;21.08;72.14;97115.06;2074679;28;20210;-70
2023/08/10 08:34:52;;;;;;;6.65;2.30;;;;;;;21.20;73.77;97114.09;2070825;28;20203;-70
2023/08/10 08:35:54;;;;;;;6.45;2.17;;;;;;;21.27;73.15;97109.13;2073173;28;20857;-70
2023/08/10 08:36:55;;;;;;;6.30;2.58;;;;;;;20.92;72.79;97118.13;2078005;28;20505;-70
2023/08/10 08:37:56;;;;;;;10.00;2.90;;;;;;;21.01;73.56;97118.22;2076121;28;20792;-70
2023/08/10 08:38:58;;;;;;;5.15;2.13;;;;;;;21.24;73.73;97109.38;2070510;28;20190;-70
2023/08/10 08:39:59;;;;;;;10.98;2.30;;;;;;;21.15;73.30;97106.50;2071568;28;20251;-70
2023/08/10 08:41:06;;;;;;;3.90;2.70;;;;;;;21.08;72.92;97113.28;2073953;28;20202;-70
2023/08/10 08:42:07;;;;;;;4.28;2.40;;;;;;;20.97;73.85;97114.13;2073874;28;20200;-70
2023/08/10 08:43:10;;;;;;;6.15;2.58;;;;;;;21.31;73.39;97114.06;2072169;28;20657;-70
2023/08/10 08:44:13;;;;;;;5.30;2.75;;;;;;;21.26;73.05;97112.75;2075716;28;20347;-70
2023/08/10 08:45:15;;;;;;;6.55;2.35;;;;;;;21.25;72.35;97109.25;2074089;28;20294;-70
2023/08/10 08:46:24;;;;;;;9.45;2.25;;;;;;;20.97;71.85;97108.81;2076088;28;20820;-70
2023/08/10 08:47:26;;;;;;;3.50;1.90;;;;;;;20.77;72.99;97109.53;2073974;28;20294;-70
2023/08/10 08:48:28;;;;;;;5.57;2.03;;;;;;;20.63;72.43;97108.81;2071989;28;20202;-70
2023/08/10 08:49:29;;;;;;;7.20;2.50;;;;;;;21.00;72.06;97108.56;2074108;28;20201;-70
2023/08/10 08:50:31;;;;;;;10.85;2.58;;;;;;;20.90;70.63;97107.63;2073700;28;20226;-71
2023/08/10 08:51:34;;;;;;;3.63;2.00;;;;;;;21.47;71.58;97110.16;2071699;28;20592;-71
2023/08/10 08:52:38;;;;;;;6.30;2.58;;;;;;;21.38;72.79;97109.09;2071582;28;20473;-71
2023/08/10 08:53:40;;;;;;;3.35;2.20;;;;;;;21.73;71.30;97094.75;2070053;28;20203;-71
2023/08/10 08:54:41;;;;;;;3.80;2.25;;;;;;;22.18;70.17;97102.50;2072505;28;20204;-71
2023/08/10 08:55:43;;;;;;;5.10;2.28;;;;;;;22.35;69.53;97102.88;2069826;28;20783;-71
2023/08/10 08:56:44;;;;;;;5.90;2.28;;;;;;;22.12;68.33;97110.16;2070971;28;20755;-71
2023/08/10 08:57:47;;;;;;;4.95;2.10;;;;;;;21.68;69.10;97097.78;2069122;28;20233;-71
2023/08/10 08:58:49;;;;;;;6.88;2.55;;;;;;;21.63;69.56;97110.63;2071362;28;20194;-70
2023/08/10 08:59:51;;;;;;;6.38;2.25;;;;;;;21.73;69.37;97104.56;2072568;28;20198;-71
2023/08/10 09:00:54;;;;;;;5.20;2.40;;;;;;;22.03;69.20;97111.78;2073995;28;20640;-70
2023/08/10 09:01:57;;;;;;;8.80;2.15;;;;;;;22.11;67.67;97105.81;2079502;28;20295;-71
2023/08/10 09:03:09;;;;;;;5.00;2.40;;;;;;;21.84;69.02;97105.34;2072192;28;20199;-71
2023/08/10 09:04:10;;;;;;;4.20;2.58;;;;;;;21.71;69.64;97099.34;2075968;28;20311;-71
2023/08/10 09:07:29;;;;;;;7.90;2.00;;;;;;;21.70;66.31;97100.34;2082598;28;20562;-69
2023/08/10 09:08:31;;;;;;;4.45;2.55;;;;;;;22.16;66.47;97099.13;2082401;28;20292;-69
2023/08/10 09:09:35;;;;;;;5.20;2.25;;;;;;;22.37;66.76;97108.09;2081776;28;20197;-70
2023/08/10 09:10:36;;;;;;;3.70;2.25;;;;;;;22.26;65.48;97101.84;2073203;28;20221;-70
2023/08/10 09:11:38;;;;;;;4.25;2.22;;;;;;;21.96;66.05;97108.78;2072614;28;20205;-69
2023/08/10 09:12:40;;;;;;;3.90;2.67;;;;;;;21.67;65.31;97100.56;2073257;28;20224;-69
2023/08/10 09:16:17;;;;;;;4.18;2.47;;;;;;;22.07;65.84;97104.38;2098322;27;21070;-69
2023/08/10 09:17:21;;;;;;;4.20;2.00;;;;;;;21.87;65.33;97098.94;2099083;28;20213;-69
2023/08/10 09:18:23;;;;;;;5.63;2.28;;;;;;;21.90;65.18;97101.31;2100202;28;20199;-69
2023/08/10 09:19:24;;;;;;;7.50;2.40;;;;;;;22.01;66.77;97090.63;2098013;28;20726;-69
2023/08/10 09:20:28;;;;;;;8.57;2.38;;;;;;;21.97;65.20;97102.50;2097484;28;20231;-69
2023/08/10 09:21:33;;;;;;;3.50;1.90;;;;;;;22.19;65.59;97095.38;2099185;28;20203;-69
2023/08/10 09:22:37;;;;;;;4.70;2.53;;;;;;;22.50;64.93;97098.09;2100547;28;20195;-70
2023/08/10 09:26:18;;;;;;;4.65;2.15;;;;;;;23.35;63.44;97087.19;2085089;28;20561;-71
2023/08/10 09:27:20;;;;;;;4.15;1.83;;;;;;;23.28;63.31;97090.41;2078462;28;20561;-72
2023/08/10 09:28:21;;;;;;;3.15;2.03;;;;;;;23.36;63.59;97086.22;2077269;28;20200;-72
2023/08/10 09:29:29;;;;;;;4.03;1.70;;;;;;;23.34;63.69;97085.50;2081768;28;20796;-72
2023/08/10 09:30:33;;;;;;;9.20;2.30;;;;;;;23.30;63.64;97083.13;2081596;28;20230;-72
2023/08/10 09:31:34;;;;;;;3.15;1.98;;;;;;;23.47;63.25;97084.25;2077092;28;20275;-72
2023/08/10 09:32:38;;;;;;;4.07;2.22;;;;;;;23.95;63.46;97081.78;2081820;28;20197;-72
2023/08/10 09:36:09;;;;;;;4.85;2.15;;;;;;;23.90;61.10;97086.66;2089402;27;20551;-72
2023/08/10 09:37:12;;;;;;;3.13;1.88;;;;;;;24.09;61.35;97080.50;2089599;28;20291;-72
2023/08/10 09:38:19;;;;;;;4.15;2.13;;;;;;;24.22;59.81;97077.53;2086802;28;20243;-72
2023/08/10 09:39:20;;;;;;;2.85;1.80;;;;;;;24.38;59.47;97082.25;2088282;28;20200;-72
2023/08/10 09:40:22;;;;;;;5.68;2.00;;;;;;;24.41;58.86;97081.97;2090028;28;20220;-72
2023/08/10 09:41:27;;;;;;;6.43;1.80;;;;;;;23.79;55.98;97076.97;2089498;28;20196;-73
2023/08/10 09:42:33;;;;;;;4.55;1.83;;;;;;;23.37;57.53;97082.56;2089732;28;20196;-72
2023/08/10 09:43:39;;;;;;;4.50;2.00;;;;;;;23.57;58.07;97078.09;2088347;28;20227;-72
2023/08/10 09:47:17;;;;;;;3.38;2.00;;;;;;;24.20;58.37;97071.47;2106786;27;20560;-72
2023/08/10 09:48:19;;;;;;;2.80;2.00;;;;;;;24.57;57.39;97076.00;2114847;28;20198;-72
2023/08/10 09:49:20;;;;;;;3.47;1.80;;;;;;;24.66;57.31;97074.31;2114054;28;20539;-72
2023/08/10 09:50:21;;;;;;;7.20;2.40;;;;;;;23.92;55.61;97066.03;2100864;27;20931;-72
2023/08/10 09:51:23;;;;;;;5.53;1.92;;;;;;;22.96;58.14;97070.13;2102486;28;20286;-72
2023/08/10 09:52:25;;;;;;;3.35;1.88;;;;;;;22.53;59.02;97076.53;2103056;28;20195;-72
2023/08/10 09:53:27;;;;;;;3.55;1.80;;;;;;;23.63;58.52;97065.06;2103261;28;20666;-72
2023/08/10 09:54:30;;;;;;;4.70;2.20;;;;;;;24.57;57.98;97074.19;2103416;28;20198;-71
2023/08/10 09:55:31;;;;;;;3.22;1.70;;;;;;;24.41;55.42;97076.63;2102936;28;20263;-72
2023/08/10 09:56:33;;;;;;;3.95;1.95;;;;;;;23.62;56.22;97063.38;2103058;28;20206;-72
2023/08/10 09:57:40;;;;;;;5.00;1.80;;;;;;;23.81;57.13;97069.69;2103029;28;20343;-73
2023/08/10 09:58:42;;;;;;;3.30;1.73;;;;;;;23.18;58.80;97065.56;2102275;28;20192;-73
2023/08/10 09:59:45;;;;;;;5.30;2.00;;;;;;;23.71;58.50;97064.34;2099286;28;20213;-72
2023/08/10 10:00:49;;;;;;;4.50;2.10;;;;;;;23.69;58.75;97060.16;2101538;28;20217;-73
2023/08/10 10:01:52;;;;;;;3.55;1.77;;;;;;;23.96;57.56;97064.81;2101930;28;20211;-73
2023/08/10 10:02:55;;;;;;;2.55;1.95;;;;;;;24.03;57.55;97065.88;2102231;28;20195;-73
2023/08/10 10:03:56;;;;;;;5.88;1.88;;;;;;;24.20;57.83;97064.34;2101286;28;20250;-72
2023/08/10 10:04:58;;;;;;;4.30;2.28;;;;;;;24.05;56.88;97063.94;2100311;28;20682;-72
2023/08/10 10:06:01;;;;;;;5.25;1.92;;;;;;;24.45;58.56;97062.00;2100264;28;20195;-73
2023/08/10 10:07:03;;;;;;;4.18;2.17;;;;;;;24.72;58.04;97063.91;2102147;28;20256;-73
2023/08/10 10:08:06;;;;;;;3.42;1.75;;;;;;;25.20;57.28;97067.28;2102251;28;20236;-73
2023/08/10 10:09:08;;;;;;;2.65;1.77;;;;;;;25.08;55.44;97064.00;2103160;28;20191;-73
2023/08/10 10:10:15;;;;;;;4.07;1.80;;;;;;;25.13;56.93;97060.88;2101567;28;20223;-73
2023/08/10 10:11:19;;;;;;;3.20;1.90;;;;;;;25.46;56.37;97057.72;2111228;28;20186;-73
2023/08/10 10:12:21;;;;;;;4.28;1.90;;;;;;;25.62;55.84;97059.72;2110761;28;20841;-73
2023/08/10 10:13:23;;;;;;;3.88;1.70;;;;;;;25.83;53.64;97057.56;2102552;28;20194;-73
2023/08/10 10:14:26;;;;;;;2.95;1.42;;;;;;;25.84;52.15;97053.03;2101744;28;20198;-73
2023/08/10 10:15:29;;;;;;;3.00;1.50;;;;;;;25.82;52.24;97052.38;2099178;28;20251;-74
2023/08/10 10:16:33;;;;;;;3.60;1.60;;;;;;;25.43;52.81;97053.53;2100604;28;20294;-73
2023/08/10 10:21:18;;;;;;;8.90;1.65;;;;;;;25.86;50.46;97061.75;2099883;27;20557;-72
2023/08/10 10:22:20;;;;;;;3.08;1.67;;;;;;;26.01;49.96;97051.34;2097340;28;20196;-72
2023/08/10 10:23:22;;;;;;;4.45;2.30;;;;;;;25.58;49.55;97046.69;2100097;28;20191;-72
2023/08/10 10:24:28;;;;;;;2.85;1.70;;;;;;;25.97;50.02;97058.03;2099167;28;20230;-72
2023/08/10 10:25:29;;;;;;;2.58;1.48;;;;;;;26.29;48.92;97048.56;2090975;28;20705;-72
2023/08/10 10:26:31;;;;;;;3.25;1.80;;;;;;;25.23;50.26;97050.97;2090459;28;20184;-72
2023/08/10 10:27:40;;;;;;;9.25;1.75;;;;;;;25.78;49.63;97051.00;2090412;28;20291;-72
2023/08/10 10:28:41;;;;;;;9.18;1.80;;;;;;;26.31;48.55;97051.91;2090176;28;20653;-72
2023/08/10 10:29:52;;;;;;;3.67;1.75;;;;;;;26.72;49.93;97052.97;2089039;28;20197;-72
2023/08/10 10:31:07;;;;;;;3.33;2.00;;;;;;;25.90;48.76;97049.75;2082528;28;20193;-72
2023/08/10 10:32:23;;;;;;;2.10;1.30;;;;;;;25.52;51.20;97041.06;2082019;28;20284;-73
2023/08/10 10:37:07;;;;;;;3.05;1.48;;;;;;;25.93;51.48;97036.09;2108101;27;20892;-71
2023/08/10 10:38:09;;;;;;;3.00;1.88;;;;;;;26.24;52.26;97036.50;2105602;28;20193;-73
2023/08/10 10:39:20;;;;;;;3.88;1.83;;;;;;;25.46;50.90;97036.34;2106052;28;20743;-74
2023/08/10 10:40:23;;;;;;;2.53;1.70;;;;;;;25.49;52.62;97034.22;2095121;27;20236;-74
2023/08/10 10:41:32;;;;;;;3.25;1.95;;;;;;;25.00;53.18;97039.00;2091658;28;20289;-74
2023/08/10 10:42:34;;;;;;;4.55;1.73;;;;;;;25.73;52.48;97038.09;2089321;28;20194;-74
2023/08/10 10:43:35;;;;;;;3.72;1.80;;;;;;;26.33;51.78;97036.53;2092665;28;20229;-74
2023/08/10 10:45:03;;;;;;;4.22;1.88;;;;;;;26.64;51.04;97033.34;2086644;28;20199;-74
2023/08/10 10:46:04;;;;;;;7.85;1.70;;;;;;;26.33;48.96;97028.50;2087859;28;20194;-74
2023/08/10 10:47:17;;;;;;;3.97;2.05;;;;;;;25.17;51.26;97032.88;2090909;28;20609;-75
2023/08/10 10:48:35;;;;;;;3.65;1.73;;;;;;;25.90;52.09;97036.38;2090662;28;20531;-74
2023/08/10 10:49:52;;;;;;;6.15;2.25;;;;;;;26.71;51.10;97032.53;2089300;28;20751;-74
2023/08/10 10:50:53;;;;;;;6.85;2.03;;;;;;;26.27;50.92;97021.97;2092895;28;20232;-74
2023/08/10 10:52:00;;;;;;;4.25;1.60;;;;;;;25.80;50.90;97031.16;2091615;28;20202;-74
2023/08/10 10:53:04;;;;;;;7.47;2.10;;;;;;;26.80;49.88;97027.25;2087178;28;20285;-75
2023/08/10 10:54:06;;;;;;;5.05;1.48;;;;;;;27.04;50.47;97024.63;2088783;28;20194;-74
2023/08/10 10:59:15;;;;;;;1.92;1.35;;;;;;;25.66;50.21;97015.63;2102437;27;20573;-71
2023/08/10 11:00:22;;;;;;;4.85;1.85;;;;;;;25.72;50.26;97020.38;2081904;28;20216;-73
2023/08/10 11:01:23;;;;;;;3.47;1.70;;;;;;;25.76;51.89;97013.72;2079397;28;20657;-73
2023/08/10 11:02:26;;;;;;;2.63;1.95;;;;;;;25.74;50.49;97013.03;2075167;28;20204;-73
2023/08/10 11:03:29;;;;;;;3.50;1.67;;;;;;;26.26;50.31;97025.63;2075678;28;20212;-74
2023/08/10 11:04:30;;;;;;;4.57;2.10;;;;;;;26.51;49.95;97018.56;2076875;28;20655;-74
2023/08/10 11:05:33;;;;;;;8.02;2.15;;;;;;;26.51;50.74;97018.56;2068908;28;20649;-73
2023/08/10 11:06:37;;;;;;;12.02;1.65;;;;;;;27.29;49.40;97018.53;2073346;28;20275;-74
2023/08/10 11:07:42;;;;;;;4.53;1.85;;;;;;;27.57;48.62;97012.91;2071583;28;20761;-73
2023/08/10 11:08:48;;;;;;;4.30;1.60;;;;;;;27.50;49.87;97010.88;2071952;28;20821;-73
2023/08/10 11:09:51;;;;;;;4.60;1.90;;;;;;;27.32;50.21;97013.66;2068997;28;20635;-72
2023/08/10 11:10:55;;;;;;;5.20;1.60;;;;;;;27.95;48.90;97008.66;2067758;28;20263;-73
2023/08/10 11:11:57;;;;;;;3.40;2.03;;;;;;;28.20;47.85;97003.28;2071337;28;20759;-73
2023/08/10 11:12:59;;;;;;;3.45;1.92;;;;;;;28.69;48.19;97010.38;2070761;28;20193;-73
2023/08/10 11:14:02;;;;;;;3.30;1.90;;;;;;;29.11;46.44;97003.78;2071008;28;20200;-73
2023/08/10 11:15:09;;;;;;;3.60;1.83;;;;;;;28.49;46.66;97002.72;2069703;28;20466;-73
2023/08/10 11:16:11;;;;;;;6.18;1.50;;;;;;;28.54;46.85;97004.88;2068858;28;20236;-73
2023/08/10 11:17:12;;;;;;;8.80;2.20;;;;;;;28.78;46.84;97003.97;2067250;28;20215;-73
2023/08/10 11:18:14;;;;;;;5.83;1.93;;;;;;;28.89;46.98;97000.06;2067452;28;20192;-73
2023/08/10 11:19:18;;;;;;;3.47;2.00;;;;;;;29.34;46.85;97007.56;2071069;28;20521;-73
2023/08/10 11:20:21;;;;;;;3.20;1.90;;;;;;;29.44;46.19;97008.16;2069042;28;20500;-73
2023/08/10 11:21:22;;;;;;;4.40;1.87;;;;;;;27.95;46.31;96997.13;2067659;28;20429;-73
2023/08/10 11:22:24;;;;;;;3.70;1.80;;;;;;;27.68;47.44;96999.97;2066877;28;20783;-73
2023/08/10 11:23:25;;;;;;;4.70;1.80;;;;;;;27.54;47.59;97001.47;2067858;28;20438;-73
2023/08/10 11:24:30;;;;;;;4.60;1.93;;;;;;;28.19;47.15;96999.78;2067201;28;20591;-72
2023/08/10 11:25:32;;;;;;;6.90;1.63;;;;;;;27.93;47.79;96999.13;2066517;28;20470;-73
2023/08/10 11:31:38;;;;;;;2.88;1.65;;;;;;;27.88;47.79;96996.94;2102196;27;20572;-72
2023/08/10 11:32:47;;;;;;;2.28;1.52;;;;;;;27.72;47.28;96992.44;2096278;28;20196;-72
2023/08/10 11:33:50;;;;;;;2.40;1.50;;;;;;;27.53;47.75;96989.06;2096826;28;20248;-72
2023/08/10 11:34:53;;;;;;;7.60;1.63;;;;;;;27.88;47.75;96990.75;2090835;28;20204;-72
2023/08/10 11:35:56;;;;;;;3.87;1.87;;;;;;;28.73;47.54;96989.38;2081085;28;20807;-72
2023/08/10 11:36:58;;;;;;;3.40;1.43;;;;;;;29.37;45.88;96999.13;2081297;28;20502;-70
2023/08/10 11:37:59;;;;;;;5.00;1.73;;;;;;;28.00;46.35;96989.41;2081183;28;20431;-72
2023/08/10 11:39:06;;;;;;;3.80;1.83;;;;;;;29.03;45.72;96993.09;2078977;28;20430;-66
2023/08/10 11:40:28;;;;;;;3.40;1.90;;;;;;;29.21;46.18;96995.50;2074199;28;20518;-73
2023/08/10 11:41:42;;;;;;;2.83;1.50;;;;;;;28.71;46.70;96994.94;2074295;28;20436;-67
2023/08/10 11:42:49;;;;;;;4.60;2.40;;;;;;;28.05;45.92;96989.75;2074139;28;20431;-71
2023/08/10 11:43:50;;;;;;;5.50;2.30;;;;;;;27.74;47.13;96993.09;2074742;28;21099;-70
2023/08/10 11:44:52;;;;;;;2.40;1.90;;;;;;;27.40;47.54;96988.75;2072811;28;20426;-72
2023/08/10 11:45:54;;;;;;;2.60;1.83;;;;;;;27.19;47.24;96991.88;2073231;28;20503;-71
2023/08/10 11:46:57;;;;;;;6.25;1.60;;;;;;;27.14;47.33;96989.66;2075476;28;20415;-71
2023/08/10 11:48:00;;;;;;;5.07;2.28;;;;;;;26.95;48.90;96985.44;2074957;28;20553;-71
2023/08/10 11:49:06;;;;;;;4.13;1.98;;;;;;;26.46;48.88;96991.44;2072720;28;20649;-71
2023/08/10 11:50:09;;;;;;;4.35;2.13;;;;;;;26.68;49.07;96989.19;2070351;28;20229;-71
2023/08/10 11:51:12;;;;;;;7.18;2.10;;;;;;;26.43;49.79;96990.94;2074221;28;20217;-71
2023/08/10 11:52:14;;;;;;;8.48;2.05;;;;;;;26.69;49.35;96988.16;2072750;28;20206;-72
2023/08/10 11:53:20;;;;;;;5.80;2.15;;;;;;;26.51;49.27;96997.16;2072149;28;20205;-71
2023/08/10 11:54:30;;;;;;;6.68;2.05;;;;;;;27.60;50.53;96988.41;2075812;28;20205;-71
2023/08/10 11:55:31;;;;;;;5.22;1.98;;;;;;;27.43;52.11;96982.22;2073917;28;20213;-71
2023/08/10 11:56:33;;;;;;;7.32;1.73;;;;;;;28.46;51.84;96996.84;2074710;28;20225;-71
2023/08/10 11:57:36;;;;;;;7.18;1.95;;;;;;;28.69;51.17;96994.28;2073854;28;20289;-71
2023/08/10 11:58:39;;;;;;;9.90;2.30;;;;;;;28.18;49.67;96987.34;2075788;28;20231;-71
2023/08/10 11:59:42;;;;;;;3.72;2.25;;;;;;;28.57;50.48;96993.78;2074158;28;20203;-71
2023/08/10 12:00:53;;;;;;;4.87;2.03;;;;;;;29.42;48.78;96992.19;2080664;28;20202;-71
2023/08/10 12:01:57;;;;;;;3.95;1.60;;;;;;;29.91;49.48;96993.66;2079956;28;20824;-72
2023/08/10 12:03:13;;;;;;;3.63;2.33;;;;;;;30.05;48.11;96997.38;2074039;28;20225;-71
2023/08/10 12:04:15;;;;;;;5.80;2.05;;;;;;;29.51;49.12;96989.44;2074545;28;20427;-72
2023/08/10 12:05:51;;;;;;;4.70;2.07;;;;;;;29.75;47.38;96997.31;2071433;28;20246;-72
2023/08/10 12:06:53;;;;;;;5.23;2.20;;;;;;;30.05;47.07;96999.25;2073081;28;20435;-72
2023/08/10 12:07:58;;;;;;;5.47;1.63;;;;;;;30.08;45.58;96993.50;2070397;28;20432;-72
2023/08/10 12:09:07;;;;;;;4.87;1.77;;;;;;;30.12;44.53;97001.03;2071759;28;20428;-72
2023/08/10 12:10:09;;;;;;;4.00;2.00;;;;;;;30.15;43.78;96994.44;2070169;28;20454;-71
2023/08/10 12:11:12;;;;;;;2.57;1.73;;;;;;;30.45;43.47;96989.09;2071331;28;20520;-72
2023/08/10 12:12:17;;;;;;;3.20;1.87;;;;;;;30.52;44.23;96998.09;2073831;28;20442;-73
2023/08/10 12:13:19;;;;;;;5.07;1.80;;;;;;;30.48;44.48;97001.38;2076756;28;20472;-72
2023/08/10 12:14:24;;;;;;;3.23;1.70;;;;;;;30.19;43.68;97000.31;2078125;28;20426;-74
2023/08/10 12:15:25;;;;;;;5.53;2.10;;;;;;;29.58;44.57;96995.78;2076800;28;20469;-73
2023/08/10 12:16:26;;;;;;;5.10;2.20;;;;;;;27.51;46.54;96999.13;2073416;28;20893;-73
2023/08/10 12:17:28;;;;;;;5.03;2.10;;;;;;;27.41;47.52;96998.44;2073521;28;20437;-73
2023/08/10 12:18:30;;;;;;;3.50;2.03;;;;;;;27.63;48.10;96996.09;2074018;28;20421;-73
2023/08/10 12:19:31;;;;;;;4.10;2.13;;;;;;;27.26;47.46;96986.69;2073920;28;20475;-73
2023/08/10 12:20:33;;;;;;;4.07;1.60;;;;;;;27.86;46.67;96990.91;2073521;28;20514;-73
2023/08/10 12:21:35;;;;;;;3.47;2.17;;;;;;;27.86;46.52;96994.44;2070515;28;20483;-73
2023/08/10 12:22:39;;;;;;;3.30;1.73;;;;;;;27.35;47.35;96997.25;2073852;28;20527;-74
2023/08/10 12:23:41;;;;;;;2.70;1.80;;;;;;;27.72;47.86;96992.44;2073447;28;20432;-73
2023/08/10 12:24:42;;;;;;;4.27;2.40;;;;;;;27.74;46.86;96995.78;2080089;28;20456;-73
2023/08/10 12:25:48;;;;;;;7.07;1.87;;;;;;;27.09;47.97;97000.03;2082683;28;20687;-73
2023/08/10 12:26:50;;;;;;;3.65;2.33;;;;;;;27.00;48.31;96995.69;2070704;28;20428;-73
2023/08/10 12:28:02;;;;;;;2.40;1.60;;;;;;;27.41;47.38;96995.75;2072053;28;20202;-74
2023/08/10 12:29:04;;;;;;;4.25;2.20;;;;;;;27.24;48.61;96996.75;2070538;28;20428;-73
2023/08/10 12:30:09;;;;;;;3.60;1.60;;;;;;;27.36;47.66;96993.56;2081095;28;20225;-73
2023/08/10 12:31:19;;;;;;;3.58;2.20;;;;;;;26.99;47.93;96992.16;2078937;28;20523;-74
2023/08/10 12:32:25;;;;;;;3.83;1.65;;;;;;;26.92;48.46;96993.81;2073907;28;20198;-74
2023/08/10 12:33:30;;;;;;;3.92;2.10;;;;;;;26.80;49.35;96993.25;2077664;28;20669;-74
2023/08/10 12:34:31;;;;;;;9.02;2.47;;;;;;;27.23;48.44;96995.88;2077349;28;20232;-74
2023/08/10 12:35:33;;;;;;;4.13;2.30;;;;;;;27.57;48.48;96991.44;2073071;28;20225;-74
2023/08/10 12:36:34;;;;;;;2.80;2.08;;;;;;;27.57;48.68;96991.44;2070149;28;20381;-74